Terminal Aerodrome Forecast
Issued by NWS

Home | Current Version | Previous Version | Text Only | Print | Product List | Glossary On
Versions: 1 2 3 4 5 6 7 8 9 10 11 12 13 14 15 16 17 18 19 20
000
FTUS43 KPAH 210500
TAFCGI
TAF
KCGI 210520Z 2106/2206 17005KT P6SM SKC
     FM210800 VRB03KT 3SM BR SKC
      TEMPO 2108/2112 1SM BR
     FM211400 22008KT P6SM SCT035
     FM220100 20005KT P6SM SKC=

USA.gov is the U.S. government's official web portal to all federal, state and local government web resources and services.